Time,TemperatureF,DewpointF,PressureIn,WindDirection,WindDirectionDegrees,WindSpeedMPH,WindSpeedGustMPH,Humidity,HourlyPrecipIn,Conditions,Clouds,dailyrainin,SoftwareType,DateUTC
2013-02-02 00:03:00,18.0,3.0,30.11,WNW,284,4.0,9.0,51,0.00,,,0.00,,2013-02-02 05:03:00,
2013-02-02 00:12:00,18.0,3.0,30.11,WNW,284,4.0,9.0,51,0.00,,,0.00,,2013-02-02 05:12:00,
2013-02-02 00:22:00,18.0,2.0,30.11,West,271,4.0,8.0,49,0.00,,,0.00,,2013-02-02 05:22:00,
2013-02-02 00:33:00,18.0,1.0,30.11,WSW,252,5.0,8.0,47,0.00,,,0.00,,2013-02-02 05:33:00,
2013-02-02 00:42:00,18.0,1.0,30.11,WSW,252,5.0,8.0,47,0.00,,,0.00,,2013-02-02 05:42:00,
2013-02-02 00:52:00,18.0,3.0,30.12,West,267,5.0,13.0,51,0.00,,,0.00,,2013-02-02 05:52:00,
2013-02-02 01:02:00,18.0,3.0,30.11,West,275,5.0,11.0,50,0.00,,,0.00,,2013-02-02 06:02:00,
2013-02-02 01:12:00,18.0,3.0,30.11,West,275,5.0,11.0,50,0.00,,,0.00,,2013-02-02 06:12:00,
2013-02-02 01:22:00,18.0,2.0,30.11,West,279,4.0,9.0,49,0.00,,,0.00,,2013-02-02 06:22:00,
2013-02-02 01:32:00,18.0,1.0,30.10,West,266,5.0,10.0,46,0.00,,,0.00,,2013-02-02 06:32:00,
2013-02-02 01:42:00,18.0,1.0,30.10,West,266,5.0,10.0,46,0.00,,,0.00,,2013-02-02 06:42:00,
2013-02-02 01:52:00,18.0,1.0,30.10,West,272,4.0,7.0,47,0.00,,,0.00,,2013-02-02 06:52:00,
2013-02-02 02:02:00,19.0,3.0,30.11,West,277,3.0,10.0,49,0.00,,,0.00,,2013-02-02 07:02:00,
2013-02-02 02:12:00,17.0,2.0,30.11,WSW,255,4.0,7.0,50,0.00,,,0.00,,2013-02-02 07:12:00,
2013-02-02 02:21:00,17.0,2.0,30.11,WSW,255,4.0,7.0,50,0.00,,,0.00,,2013-02-02 07:21:00,
2013-02-02 02:32:00,19.0,0.0,30.11,West,269,3.0,5.0,42,0.00,,,0.00,,2013-02-02 07:32:00,
2013-02-02 02:42:00,19.0,0.0,30.11,West,269,3.0,5.0,42,0.00,,,0.00,,2013-02-02 07:42:00,
2013-02-02 02:52:00,22.0,-9.0,30.11,West,269,2.0,4.0,24,0.00,,,0.00,,2013-02-02 07:52:00,
2013-02-02 03:01:00,23.0,-8.0,30.11,SW,229,3.0,7.0,25,0.00,,,0.00,,2013-02-02 08:01:00,
2013-02-02 03:11:00,23.0,-8.0,30.11,SW,229,3.0,7.0,25,0.00,,,0.00,,2013-02-02 08:11:00,
2013-02-02 03:21:00,22.0,-8.0,30.10,WSW,250,2.0,6.0,25,0.00,,,0.00,,2013-02-02 08:21:00,
2013-02-02 03:31:00,23.0,-6.0,30.10,WSW,250,3.0,5.0,27,0.00,,,0.00,,2013-02-02 08:31:00,
2013-02-02 03:41:00,23.0,-6.0,30.10,WSW,250,3.0,5.0,27,0.00,,,0.00,,2013-02-02 08:41:00,
2013-02-02 03:53:00,22.0,-9.0,30.10,WSW,240,5.0,9.0,24,0.00,,,0.00,,2013-02-02 08:53:00,
2013-02-02 04:01:00,23.0,-8.0,30.09,WSW,244,6.0,8.0,24,0.00,,,0.00,,2013-02-02 09:01:00,
2013-02-02 04:11:00,23.0,-8.0,30.09,WSW,244,6.0,8.0,24,0.00,,,0.00,,2013-02-02 09:11:00,
2013-02-02 04:22:00,22.0,-7.0,30.10,WSW,240,6.0,10.0,27,0.00,,,0.00,,2013-02-02 09:22:00,
2013-02-02 04:32:00,21.0,-4.0,30.09,SSW,209,7.0,12.0,33,0.00,,,0.00,,2013-02-02 09:32:00,
2013-02-02 04:42:00,21.0,-4.0,30.09,SSW,209,7.0,12.0,33,0.00,,,0.00,,2013-02-02 09:42:00,
2013-02-02 04:52:00,21.0,-1.0,30.09,WSW,242,6.0,10.0,37,0.00,,,0.00,,2013-02-02 09:52:00,
2013-02-02 05:02:00,21.0,0.0,30.08,WSW,239,5.0,9.0,39,0.00,,,0.00,,2013-02-02 10:02:00,
2013-02-02 05:11:00,21.0,0.0,30.08,WSW,239,5.0,9.0,39,0.00,,,0.00,,2013-02-02 10:11:00,
2013-02-02 05:21:00,21.0,2.0,30.08,WSW,238,7.0,10.0,42,0.00,,,0.00,,2013-02-02 10:21:00,
2013-02-02 05:32:00,21.0,3.0,30.08,WSW,238,6.0,11.0,44,0.00,,,0.00,,2013-02-02 10:32:00,
2013-02-02 05:42:00,21.0,3.0,30.08,WSW,238,6.0,11.0,44,0.00,,,0.00,,2013-02-02 10:42:00,
2013-02-02 05:52:00,20.0,3.0,30.08,SW,223,7.0,10.0,46,0.00,,,0.00,,2013-02-02 10:52:00,
2013-02-02 06:02:00,20.0,3.0,30.09,SW,227,9.0,12.0,47,0.00,,,0.00,,2013-02-02 11:02:00,
2013-02-02 06:11:00,20.0,3.0,30.09,SW,227,9.0,12.0,47,0.00,,,0.00,,2013-02-02 11:11:00,
2013-02-02 06:22:00,20.0,4.0,30.09,SW,223,8.0,12.0,48,0.00,,,0.00,,2013-02-02 11:22:00,
2013-02-02 06:32:00,20.0,2.0,30.09,SW,229,9.0,13.0,44,0.00,,,0.00,,2013-02-02 11:32:00,
2013-02-02 06:42:00,20.0,2.0,30.09,SW,229,9.0,13.0,44,0.00,,,0.00,,2013-02-02 11:42:00,
2013-02-02 06:52:00,20.0,1.0,30.09,WSW,238,10.0,15.0,42,0.00,,,0.00,,2013-02-02 11:52:00,
2013-02-02 07:02:00,20.0,0.0,30.09,SW,226,8.0,12.0,41,0.00,,,0.00,,2013-02-02 12:02:00,
2013-02-02 07:11:00,20.0,0.0,30.09,SW,226,8.0,12.0,41,0.00,,,0.00,,2013-02-02 12:11:00,
2013-02-02 07:22:00,20.0,-1.0,30.10,SW,229,8.0,12.0,38,0.00,,,0.00,,2013-02-02 12:22:00,
2013-02-02 07:32:00,20.0,-1.0,30.10,SW,231,8.0,12.0,39,0.00,,,0.00,,2013-02-02 12:32:00,
2013-02-02 07:42:00,20.0,-1.0,30.10,SW,231,8.0,12.0,39,0.00,,,0.00,,2013-02-02 12:42:00,
2013-02-02 07:52:00,20.0,0.0,30.11,SW,218,8.0,11.0,40,0.00,,,0.00,,2013-02-02 12:52:00,
2013-02-02 08:03:00,20.0,1.0,30.11,SW,233,8.0,12.0,42,0.00,,,0.00,,2013-02-02 13:03:00,
2013-02-02 08:11:00,20.0,1.0,30.11,SW,233,8.0,12.0,42,0.00,,,0.00,,2013-02-02 13:11:00,
2013-02-02 08:22:00,20.0,2.0,30.10,SW,231,8.0,12.0,44,0.00,,,0.00,,2013-02-02 13:22:00,
2013-02-02 08:32:00,20.0,3.0,30.11,WSW,241,7.0,11.0,47,0.00,,,0.00,,2013-02-02 13:32:00,
2013-02-02 08:42:00,20.0,3.0,30.11,WSW,241,7.0,11.0,47,0.00,,,0.00,,2013-02-02 13:42:00,
2013-02-02 08:52:00,21.0,3.0,30.11,SW,236,7.0,10.0,45,0.00,,,0.00,,2013-02-02 13:52:00,
2013-02-02 09:02:00,21.0,3.0,30.11,SW,220,7.0,10.0,44,0.00,,,0.00,,2013-02-02 14:02:00,
2013-02-02 09:11:00,21.0,3.0,30.11,SW,220,7.0,10.0,44,0.00,,,0.00,,2013-02-02 14:11:00,
2013-02-02 09:22:00,21.0,4.0,30.10,SW,236,5.0,10.0,47,0.00,,,0.00,,2013-02-02 14:22:00,
2013-02-02 09:32:00,21.0,4.0,30.10,WSW,244,4.0,6.0,47,0.00,,,0.00,,2013-02-02 14:32:00,
2013-02-02 09:42:00,21.0,4.0,30.10,WSW,244,4.0,6.0,47,0.00,,,0.00,,2013-02-02 14:42:00,
2013-02-02 09:52:00,22.0,5.0,30.11,WSW,244,1.0,6.0,48,0.00,,,0.00,,2013-02-02 14:52:00,
2013-02-02 10:03:00,23.0,8.0,30.10,SW,225,2.0,5.0,51,0.00,,,0.00,,2013-02-02 15:03:00,
2013-02-02 10:12:00,23.0,8.0,30.10,SW,225,2.0,5.0,51,0.00,,,0.00,,2013-02-02 15:12:00,
2013-02-02 10:22:00,24.0,8.0,30.10,SW,225,1.0,5.0,49,0.00,,,0.00,,2013-02-02 15:22:00,
2013-02-02 10:32:00,26.0,9.0,30.09,SW,225,1.0,3.0,48,0.00,,,0.00,,2013-02-02 15:32:00,
2013-02-02 10:42:00,26.0,9.0,30.09,SW,225,1.0,3.0,48,0.00,,,0.00,,2013-02-02 15:42:00,
2013-02-02 10:52:00,26.0,9.0,30.08,South,190,1.0,5.0,49,0.00,,,0.00,,2013-02-02 15:52:00,
2013-02-02 11:03:00,26.0,10.0,30.08,South,190,2.0,6.0,51,0.00,,,0.00,,2013-02-02 16:03:00,
2013-02-02 11:12:00,26.0,10.0,30.08,South,190,2.0,6.0,51,0.00,,,0.00,,2013-02-02 16:12:00,
2013-02-02 11:23:00,28.0,10.0,30.08,SW,227,2.0,6.0,47,0.00,,,0.00,,2013-02-02 16:23:00,
2013-02-02 11:32:00,29.0,12.0,30.07,SSW,211,1.0,6.0,48,0.00,,,0.00,,2013-02-02 16:32:00,
2013-02-02 11:42:00,29.0,12.0,30.07,SSW,211,1.0,6.0,48,0.00,,,0.00,,2013-02-02 16:42:00,
2013-02-02 11:52:00,29.0,11.0,30.07,WSW,237,4.0,10.0,46,0.00,,,0.00,,2013-02-02 16:52:00,
2013-02-02 12:03:00,29.0,10.0,30.06,WSW,238,4.0,9.0,44,0.00,,,0.00,,2013-02-02 17:03:00,
2013-02-02 12:11:00,29.0,10.0,30.06,WSW,238,4.0,9.0,44,0.00,,,0.00,,2013-02-02 17:11:00,
2013-02-02 12:22:00,31.0,12.0,30.06,SW,232,3.0,6.0,45,0.00,,,0.00,,2013-02-02 17:22:00,
2013-02-02 12:32:00,34.0,13.0,30.06,SW,228,4.0,9.0,41,0.00,,,0.00,,2013-02-02 17:32:00,
2013-02-02 12:42:00,34.0,13.0,30.06,SW,228,4.0,9.0,41,0.00,,,0.00,,2013-02-02 17:42:00,
2013-02-02 12:53:00,36.0,15.0,30.04,SW,232,6.0,10.0,42,0.00,,,0.00,,2013-02-02 17:53:00,
2013-02-02 13:02:00,34.0,14.0,30.02,WSW,245,5.0,11.0,43,0.00,,,0.00,,2013-02-02 18:02:00,
2013-02-02 13:12:00,34.0,14.0,30.02,WSW,245,5.0,11.0,43,0.00,,,0.00,,2013-02-02 18:12:00,
2013-02-02 13:22:00,35.0,14.0,30.02,SW,234,6.0,11.0,41,0.00,,,0.00,,2013-02-02 18:22:00,
2013-02-02 13:32:00,34.0,13.0,30.01,WSW,240,8.0,11.0,42,0.00,,,0.00,,2013-02-02 18:32:00,
2013-02-02 13:42:00,34.0,13.0,30.01,WSW,240,8.0,11.0,42,0.00,,,0.00,,2013-02-02 18:42:00,
2013-02-02 13:52:00,36.0,16.0,30.00,SSW,203,6.0,11.0,44,0.00,,,0.00,,2013-02-02 18:52:00,
2013-02-02 14:02:00,33.0,14.0,29.99,SW,219,5.0,14.0,45,0.00,,,0.00,,2013-02-02 19:02:00,
2013-02-02 14:12:00,33.0,14.0,29.99,SW,219,5.0,14.0,45,0.00,,,0.00,,2013-02-02 19:12:00,
2013-02-02 14:22:00,33.0,15.0,29.98,SSW,207,5.0,13.0,47,0.00,,,0.00,,2013-02-02 19:22:00,
2013-02-02 14:32:00,33.0,16.0,29.98,WSW,245,5.0,15.0,49,0.00,,,0.00,,2013-02-02 19:32:00,
2013-02-02 14:42:00,33.0,16.0,29.98,WSW,245,5.0,15.0,49,0.00,,,0.00,,2013-02-02 19:42:00,
2013-02-02 14:52:00,33.0,16.0,29.97,SW,226,4.0,9.0,49,0.00,,,0.00,,2013-02-02 19:52:00,
2013-02-02 15:01:00,33.0,15.0,29.96,SW,234,4.0,9.0,48,0.00,,,0.00,,2013-02-02 20:01:00,
2013-02-02 15:11:00,33.0,15.0,29.96,SW,234,4.0,9.0,48,0.00,,,0.00,,2013-02-02 20:11:00,
2013-02-02 15:22:00,33.0,18.0,29.96,SW,223,7.0,11.0,54,0.00,,,0.00,,2013-02-02 20:22:00,
2013-02-02 15:32:00,32.0,19.0,29.95,SW,231,6.0,10.0,58,0.00,,,0.00,,2013-02-02 20:32:00,
2013-02-02 15:42:00,32.0,19.0,29.95,SW,231,6.0,10.0,58,0.00,,,0.00,,2013-02-02 20:42:00,
2013-02-02 15:52:00,32.0,24.0,29.95,SSW,200,6.0,11.0,72,0.00,,,0.00,,2013-02-02 20:52:00,
2013-02-02 16:02:00,32.0,26.0,29.94,SSW,206,5.0,12.0,77,0.00,,,0.00,,2013-02-02 21:02:00,
2013-02-02 16:11:00,32.0,26.0,29.94,SSW,206,5.0,12.0,77,0.00,,,0.00,,2013-02-02 21:11:00,
2013-02-02 16:21:00,31.0,25.0,29.93,SW,215,7.0,10.0,78,0.00,,,0.00,,2013-02-02 21:21:00,
2013-02-02 16:32:00,31.0,25.0,29.92,WSW,237,4.0,9.0,78,0.00,,,0.00,,2013-02-02 21:32:00,
2013-02-02 16:42:00,31.0,25.0,29.92,WSW,237,4.0,9.0,78,0.00,,,0.00,,2013-02-02 21:42:00,
2013-02-02 16:52:00,31.0,25.0,29.92,West,263,5.0,8.0,78,0.00,,,0.00,,2013-02-02 21:52:00,
2013-02-02 17:02:00,31.0,25.0,29.92,SW,236,5.0,11.0,78,0.00,,,0.00,,2013-02-02 22:02:00,
2013-02-02 17:12:00,31.0,25.0,29.92,SW,236,5.0,11.0,78,0.00,,,0.00,,2013-02-02 22:12:00,
2013-02-02 17:21:00,30.0,25.0,29.92,WSW,247,5.0,9.0,80,0.00,,,0.00,,2013-02-02 22:21:00,
2013-02-02 17:32:00,30.0,25.0,29.92,WSW,239,5.0,8.0,83,0.00,,,0.00,,2013-02-02 22:32:00,
2013-02-02 17:42:00,30.0,25.0,29.92,WSW,239,5.0,8.0,83,0.00,,,0.00,,2013-02-02 22:42:00,
2013-02-02 17:52:00,30.0,27.0,29.91,WSW,244,6.0,9.0,87,0.00,,,0.00,,2013-02-02 22:52:00,
2013-02-02 18:02:00,29.0,26.0,29.91,WSW,244,5.0,10.0,89,0.00,,,0.00,,2013-02-02 23:02:00,
2013-02-02 18:11:00,29.0,26.0,29.91,WSW,244,5.0,10.0,89,0.00,,,0.00,,2013-02-02 23:11:00,
2013-02-02 18:22:00,29.0,27.0,29.90,SW,235,5.0,9.0,92,0.00,,,0.00,,2013-02-02 23:22:00,
2013-02-02 18:32:00,29.0,27.0,29.89,SW,232,7.0,8.0,94,0.00,,,0.00,,2013-02-02 23:32:00,
2013-02-02 18:42:00,29.0,27.0,29.89,SW,232,7.0,8.0,94,0.00,,,0.00,,2013-02-02 23:42:00,
2013-02-02 18:52:00,28.0,27.0,29.88,WSW,238,8.0,13.0,95,0.00,,,0.00,,2013-02-02 23:52:00,
2013-02-02 19:02:00,28.0,27.0,29.89,SW,231,8.0,14.0,96,0.00,,,0.00,,2013-02-03 00:02:00,
2013-02-02 19:11:00,28.0,27.0,29.89,SW,231,8.0,14.0,96,0.00,,,0.00,,2013-02-03 00:11:00,
2013-02-02 19:22:00,28.0,27.0,29.89,SW,221,7.0,13.0,97,0.00,,,0.00,,2013-02-03 00:22:00,
2013-02-02 19:32:00,28.0,27.0,29.89,SW,231,7.0,12.0,97,0.00,,,0.00,,2013-02-03 00:32:00,
2013-02-02 19:42:00,28.0,27.0,29.89,SW,231,7.0,12.0,97,0.00,,,0.00,,2013-02-03 00:42:00,
2013-02-02 19:52:00,28.0,27.0,29.89,SW,236,9.0,15.0,97,0.00,,,0.00,,2013-02-03 00:52:00,
2013-02-02 20:02:00,28.0,27.0,29.89,SW,223,8.0,13.0,97,0.00,,,0.00,,2013-02-03 01:02:00,
2013-02-02 20:11:00,28.0,27.0,29.89,West,271,7.0,15.0,97,0.00,,,0.00,,2013-02-03 01:11:00,
2013-02-02 20:21:00,28.0,27.0,29.89,West,271,7.0,15.0,97,0.00,,,0.00,,2013-02-03 01:21:00,
2013-02-02 20:32:00,28.0,27.0,29.89,SW,235,8.0,17.0,97,0.00,,,0.00,,2013-02-03 01:32:00,
2013-02-02 20:42:00,28.0,27.0,29.89,SW,235,8.0,17.0,97,0.00,,,0.00,,2013-02-03 01:42:00,
2013-02-02 20:52:00,28.0,27.0,29.88,SW,220,8.0,13.0,97,0.00,,,0.00,,2013-02-03 01:52:00,
2013-02-02 21:01:00,28.0,27.0,29.90,SW,234,9.0,12.0,97,0.00,,,0.00,,2013-02-03 02:01:00,
2013-02-02 21:11:00,28.0,27.0,29.90,SW,234,9.0,12.0,97,0.00,,,0.00,,2013-02-03 02:11:00,
2013-02-02 21:21:00,28.0,27.0,29.90,WSW,243,8.0,13.0,97,0.00,,,0.00,,2013-02-03 02:21:00,
2013-02-02 21:32:00,28.0,27.0,29.89,WSW,244,5.0,10.0,97,0.00,,,0.00,,2013-02-03 02:32:00,
2013-02-02 21:42:00,28.0,27.0,29.89,WSW,244,5.0,10.0,97,0.00,,,0.00,,2013-02-03 02:42:00,
2013-02-02 21:52:00,28.0,27.0,29.89,WSW,248,5.0,8.0,97,0.00,,,0.00,,2013-02-03 02:52:00,
2013-02-02 22:02:00,28.0,27.0,29.89,WSW,257,5.0,7.0,97,0.00,,,0.00,,2013-02-03 03:02:00,
2013-02-02 22:11:00,28.0,27.0,29.89,West,263,5.0,10.0,97,0.00,,,0.00,,2013-02-03 03:11:00,
2013-02-02 22:22:00,28.0,27.0,29.89,West,263,5.0,10.0,97,0.00,,,0.00,,2013-02-03 03:22:00,
2013-02-02 22:32:00,29.0,29.0,29.88,WSW,246,5.0,14.0,98,0.00,,,0.00,,2013-02-03 03:32:00,
2013-02-02 22:42:00,29.0,29.0,29.88,WSW,246,5.0,14.0,98,0.00,,,0.00,,2013-02-03 03:42:00,
2013-02-02 22:52:00,29.0,28.0,29.87,WSW,252,4.0,8.0,97,0.00,,,0.00,,2013-02-03 03:52:00,
2013-02-02 23:01:00,29.0,29.0,29.87,West,274,3.0,6.0,98,0.00,,,0.00,,2013-02-03 04:01:00,
2013-02-02 23:11:00,29.0,29.0,29.87,West,274,3.0,6.0,98,0.00,,,0.00,,2013-02-03 04:11:00,
2013-02-02 23:21:00,29.0,28.0,29.87,West,264,6.0,12.0,97,0.00,,,0.00,,2013-02-03 04:21:00,
2013-02-02 23:32:00,29.0,29.0,29.87,West,281,2.0,8.0,98,0.00,,,0.00,,2013-02-03 04:32:00,
2013-02-02 23:42:00,29.0,29.0,29.87,West,281,2.0,8.0,98,0.00,,,0.00,,2013-02-03 04:42:00,
2013-02-02 23:52:00,29.0,28.0,29.86,West,275,2.0,8.0,97,0.00,,,0.00,,2013-02-03 04:52:00,